Time;durP1;ratioP1;P1;durP2;ratioP2;P2;SDS_P1;SDS_P2;PMS_P1;PMS_P2;Temp;Humidity;BMP_temperature;BMP_pressure;BME280_temperature;BME280_humidity;BME280_pressure;Samples;Min_cycle;Max_cycle;Signal;HPM_P1;HPM_P2
2023/06/16 00:01:31;;;;;;;3.65;3.33;;;15.70;87.90;;;;;;5086729;28;20048;-83
2023/06/16 00:03:58;;;;;;;6.32;3.70;;;15.30;88.30;;;;;;5088970;28;20048;-83
2023/06/16 00:06:29;;;;;;;4.80;3.30;;;15.50;89.00;;;;;;5087164;28;20036;-83
2023/06/16 00:08:56;;;;;;;7.10;4.63;;;15.50;89.50;;;;;;5069376;28;20086;-83
2023/06/16 00:11:23;;;;;;;4.72;3.70;;;15.40;90.10;;;;;;5087271;28;20039;-82
2023/06/16 00:13:50;;;;;;;4.57;3.72;;;15.40;90.30;;;;;;5087711;28;20044;-83
2023/06/16 00:16:19;;;;;;;4.22;3.42;;;15.40;90.50;;;;;;5071297;28;20048;-84
2023/06/16 00:18:51;;;;;;;5.93;3.72;;;15.30;90.80;;;;;;5088313;28;20415;-83
2023/06/16 00:21:35;;;;;;;8.60;3.55;;;15.30;91.10;;;;;;5084834;28;20129;-83
2023/06/16 00:24:01;;;;;;;4.80;3.97;;;15.80;91.40;;;;;;5104033;28;20051;-83
2023/06/16 00:26:27;;;;;;;4.88;3.60;;;15.20;91.40;;;;;;5087399;28;20102;-82
2023/06/16 00:28:53;;;;;;;6.55;4.32;;;15.20;91.80;;;;;;5086286;28;20428;-83
2023/06/16 00:31:18;;;;;;;8.85;4.32;;;15.10;92.10;;;;;;5087851;28;20039;-83
2023/06/16 00:33:44;;;;;;;6.43;3.92;;;15.10;92.30;;;;;;5087364;28;20036;-83
2023/06/16 00:36:10;;;;;;;6.53;3.92;;;15.10;92.50;;;;;;5056947;28;20040;-83
2023/06/16 00:38:35;;;;;;;7.00;4.03;;;15.10;92.80;;;;;;5085482;28;20128;-83
2023/06/16 00:41:01;;;;;;;6.50;4.43;;;15.10;93.10;;;;;;5086613;28;20051;-83
2023/06/16 00:43:27;;;;;;;5.53;4.20;;;15.00;93.30;;;;;;5087122;28;20048;-83
2023/06/16 00:45:52;;;;;;;6.15;4.90;;;15.00;93.60;;;;;;5075015;28;20040;-83
2023/06/16 00:48:18;;;;;;;5.13;4.60;;;15.00;93.90;;;;;;5071869;28;20121;-83
2023/06/16 00:50:45;;;;;;;5.25;4.00;;;15.00;94.10;;;;;;5085185;28;20093;-84
2023/06/16 00:53:11;;;;;;;8.13;4.40;;;14.90;94.40;;;;;;5086596;28;20059;-84
2023/06/16 00:55:37;;;;;;;6.75;4.53;;;14.90;94.80;;;;;;5086140;28;20052;-84
2023/06/16 00:58:03;;;;;;;5.65;4.72;;;15.10;95.40;;;;;;5086554;28;20066;-84
2023/06/16 01:00:32;;;;;;;6.43;4.82;;;14.90;95.50;;;;;;5085223;28;20294;-83
2023/06/16 01:02:57;;;;;;;4.90;4.40;;;14.90;95.80;;;;;;5067332;28;20079;-84
2023/06/16 01:05:24;;;;;;;5.85;4.25;;;15.10;96.00;;;;;;5086088;28;20067;-83
2023/06/16 01:08:34;;;;;;;6.40;4.47;;;15.00;96.10;;;;;;5069837;28;20063;-83
2023/06/16 01:11:27;;;;;;;7.90;4.78;;;14.80;97.00;;;;;;5086312;28;20040;-83
2023/06/16 01:14:07;;;;;;;6.28;4.53;;;14.80;97.40;;;;;;5083156;28;20050;-83
2023/06/16 01:16:35;;;;;;;9.05;5.18;;;14.90;97.70;;;;;;5081448;28;20131;-83
2023/06/16 01:19:08;;;;;;;5.97;4.90;;;14.80;98.00;;;;;;5086839;28;20072;-83
2023/06/16 01:21:39;;;;;;;6.10;4.90;;;14.80;98.40;;;;;;5087116;28;20063;-83
2023/06/16 01:24:23;;;;;;;5.40;4.22;;;14.80;98.80;;;;;;5086674;28;20396;-83
2023/06/16 01:26:52;;;;;;;5.47;4.97;;;14.90;99.20;;;;;;5073983;28;20055;-83
2023/06/16 01:29:22;;;;;;;6.43;4.93;;;14.80;99.30;;;;;;5065061;28;20047;-83
2023/06/16 01:31:54;;;;;;;9.73;5.35;;;14.80;99.70;;;;;;5069225;28;20043;-83
2023/06/16 01:34:21;;;;;;;5.00;4.50;;;14.80;99.90;;;;;;5086614;28;20062;-83
2023/06/16 01:36:47;;;;;;;8.40;5.03;;;14.90;99.90;;;;;;5086353;28;20128;-83
2023/06/16 01:39:16;;;;;;;5.18;4.50;;;14.70;99.90;;;;;;5069458;28;20048;-84
2023/06/16 01:41:43;;;;;;;4.65;3.95;;;14.70;99.90;;;;;;5086417;28;20047;-83
2023/06/16 01:44:09;;;;;;;6.90;4.65;;;14.70;99.90;;;;;;5086965;28;20116;-83
2023/06/16 01:46:36;;;;;;;5.30;4.78;;;14.70;99.90;;;;;;5085445;28;20509;-83
2023/06/16 01:49:02;;;;;;;7.10;5.25;;;14.70;99.90;;;;;;5069083;28;20055;-83
2023/06/16 01:51:28;;;;;;;5.60;4.93;;;14.70;99.90;;;;;;5069194;28;20039;-84
2023/06/16 01:53:55;;;;;;;7.13;5.38;;;14.70;99.90;;;;;;5084860;28;20047;-83
2023/06/16 01:56:22;;;;;;;8.90;4.88;;;14.70;99.90;;;;;;5086270;28;20040;-84
2023/06/16 01:58:49;;;;;;;6.50;5.72;;;14.70;99.90;;;;;;5086234;28;20048;-83
2023/06/16 02:01:29;;;;;;;6.25;5.68;;;15.10;99.90;;;;;;5087005;28;20178;-83
2023/06/16 02:04:08;;;;;;;6.85;6.15;;;14.80;99.90;;;;;;5084670;28;20062;-82
2023/06/16 02:06:41;;;;;;;11.30;6.03;;;14.70;99.90;;;;;;5072327;28;20054;-83
2023/06/16 02:09:09;;;;;;;8.00;6.57;;;14.70;99.90;;;;;;5061355;28;20488;-83
2023/06/16 02:11:35;;;;;;;8.30;6.20;;;14.70;99.90;;;;;;5068557;28;20385;-83
2023/06/16 02:14:03;;;;;;;7.80;6.10;;;14.70;99.90;;;;;;5084496;28;20503;-84
2023/06/16 02:16:29;;;;;;;7.00;6.28;;;14.70;99.90;;;;;;5086867;28;20105;-83
2023/06/16 02:18:55;;;;;;;7.93;6.25;;;14.70;99.90;;;;;;5065436;28;20511;-83
2023/06/16 02:21:21;;;;;;;6.38;5.82;;;14.70;99.90;;;;;;5078889;28;20044;-83
2023/06/16 02:23:47;;;;;;;7.32;6.07;;;14.70;99.90;;;;;;5072230;28;20083;-83
2023/06/16 02:26:12;;;;;;;7.97;6.22;;;15.10;99.90;;;;;;5089354;28;20625;-82
2023/06/16 02:28:38;;;;;;;7.32;5.80;;;14.70;99.90;;;;;;5089084;28;20044;-83
2023/06/16 02:31:04;;;;;;;7.10;6.38;;;14.70;99.90;;;;;;5069352;28;20151;-83
2023/06/16 02:33:29;;;;;;;6.43;5.10;;;15.10;99.90;;;;;;5083963;28;20051;-83
2023/06/16 02:35:55;;;;;;;5.18;4.68;;;14.60;99.90;;;;;;5071001;28;20561;-82
2023/06/16 02:38:21;;;;;;;6.45;4.85;;;14.60;99.90;;;;;;5089257;28;20036;-83
2023/06/16 02:40:46;;;;;;;7.55;5.05;;;14.50;99.90;;;;;;5087775;28;20044;-84
2023/06/16 02:43:12;;;;;;;7.75;4.50;;;14.40;99.90;;;;;;5090001;28;20047;-84
2023/06/16 02:45:39;;;;;;;6.78;4.38;;;14.60;99.90;;;;;;5073093;28;20089;-84
2023/06/16 02:48:05;;;;;;;5.40;4.78;;;14.30;99.90;;;;;;5089378;28;20063;-84
2023/06/16 02:50:31;;;;;;;5.70;4.30;;;14.70;99.90;;;;;;5090660;28;20044;-83
2023/06/16 02:52:57;;;;;;;4.95;4.45;;;14.20;99.90;;;;;;5077194;28;20123;-84
2023/06/16 02:55:24;;;;;;;6.70;4.60;;;14.10;99.90;;;;;;5084210;28;20499;-84
2023/06/16 02:57:50;;;;;;;4.85;4.35;;;14.10;99.90;;;;;;5085413;28;20144;-84
2023/06/16 03:00:16;;;;;;;5.13;4.55;;;14.00;99.90;;;;;;5086046;28;20845;-84
2023/06/16 03:02:42;;;;;;;5.85;5.07;;;14.00;99.90;;;;;;5088709;28;20052;-84
2023/06/16 03:05:07;;;;;;;6.63;5.53;;;14.10;99.90;;;;;;5088884;28;20500;-82
2023/06/16 03:07:34;;;;;;;7.30;4.95;;;13.90;99.90;;;;;;5078966;28;20044;-83
2023/06/16 03:10:07;;;;;;;9.98;5.00;;;13.90;99.90;;;;;;5070871;28;20044;-84
2023/06/16 03:12:32;;;;;;;;;;;13.90;99.90;;;;;;5069785;28;20060;-83
2023/06/16 03:14:58;;;;;;;8.13;6.07;;;13.90;99.90;;;;;;5083824;28;19920;-83
2023/06/16 03:17:24;;;;;;;8.63;6.53;;;13.90;99.90;;;;;;5089163;28;20048;-84
2023/06/16 03:19:50;;;;;;;8.82;8.02;;;14.00;99.90;;;;;;5087692;28;20111;-83
2023/06/16 03:22:16;;;;;;;10.15;8.80;;;14.00;99.90;;;;;;5089341;28;20078;-83
2023/06/16 03:24:46;;;;;;;12.48;9.60;;;14.10;99.90;;;;;;5088998;28;20048;-83
2023/06/16 03:27:12;;;;;;;13.73;8.55;;;14.20;99.90;;;;;;5055724;28;20640;-83
2023/06/16 03:29:38;;;;;;;10.00;8.52;;;14.20;99.90;;;;;;5088004;28;20048;-83
2023/06/16 03:32:07;;;;;;;9.10;7.78;;;14.20;99.90;;;;;;5089170;28;20051;-83
2023/06/16 03:34:32;;;;;;;9.55;7.57;;;14.20;99.90;;;;;;5088043;28;20048;-83
2023/06/16 03:36:59;;;;;;;9.35;8.45;;;14.20;99.90;;;;;;5088410;28;20511;-83
2023/06/16 03:39:25;;;;;;;9.50;8.38;;;14.30;99.90;;;;;;5089581;28;20052;-83
2023/06/16 03:41:52;;;;;;;8.68;7.85;;;14.30;99.90;;;;;;5088354;28;20052;-83
2023/06/16 03:44:17;;;;;;;8.40;7.63;;;14.30;99.90;;;;;;5087751;28;20028;-83
2023/06/16 03:46:43;;;;;;;8.68;7.35;;;14.80;99.90;;;;;;5070998;28;20073;-83
2023/06/16 03:49:09;;;;;;;8.15;6.97;;;14.30;99.90;;;;;;5071029;28;20060;-82
2023/06/16 03:51:34;;;;;;;10.93;7.93;;;14.30;99.90;;;;;;5089484;28;20521;-83
2023/06/16 03:54:01;;;;;;;8.98;8.07;;;14.30;99.90;;;;;;5088456;28;20044;-84
2023/06/16 03:56:26;;;;;;;9.35;8.15;;;14.30;99.90;;;;;;5086511;28;20063;-83
2023/06/16 03:58:52;;;;;;;10.30;9.27;;;14.30;99.90;;;;;;5087874;28;20039;-83
2023/06/16 04:01:22;;;;;;;10.25;8.90;;;14.40;99.90;;;;;;5087605;28;20048;-83
2023/06/16 04:03:49;;;;;;;10.32;9.25;;;14.00;99.90;;;;;;5071439;28;20079;-82
2023/06/16 04:06:15;;;;;;;10.15;9.02;;;14.40;99.90;;;;;;5089166;28;20052;-82
2023/06/16 04:08:41;;;;;;;12.05;9.48;;;14.40;99.90;;;;;;5079475;28;20056;-82
2023/06/16 04:11:07;;;;;;;16.42;9.05;;;14.40;99.90;;;;;;5068159;28;20052;-82
2023/06/16 04:13:32;;;;;;;10.35;9.38;;;14.50;99.90;;;;;;5076048;28;20033;-82
2023/06/16 04:15:58;;;;;;;11.45;9.38;;;14.50;99.90;;;;;;5087863;28;20048;-83
2023/06/16 04:18:24;;;;;;;10.77;9.68;;;14.50;99.90;;;;;;5070054;28;20069;-83
2023/06/16 04:20:50;;;;;;;10.55;9.45;;;14.60;99.90;;;;;;5089138;28;20051;-84
2023/06/16 04:23:16;;;;;;;11.30;10.20;;;14.60;99.90;;;;;;5071380;28;20070;-83
2023/06/16 04:25:42;;;;;;;14.10;10.38;;;14.60;99.90;;;;;;5070679;28;20044;-83
2023/06/16 04:28:13;;;;;;;11.77;10.38;;;14.70;99.90;;;;;;5085775;28;20554;-83
2023/06/16 04:30:40;;;;;;;11.15;10.05;;;14.50;99.90;;;;;;5086001;28;20044;-83
2023/06/16 04:33:06;;;;;;;11.48;10.25;;;14.90;99.90;;;;;;5069842;28;20047;-83
2023/06/16 04:35:34;;;;;;;11.43;10.23;;;15.00;99.90;;;;;;5082896;28;20044;-83
2023/06/16 04:38:00;;;;;;;11.85;10.65;;;15.00;99.90;;;;;;5068449;28;20523;-83
2023/06/16 04:40:32;;;;;;;11.50;10.30;;;15.10;99.90;;;;;;5086792;28;20066;-83
2023/06/16 04:43:00;;;;;;;12.10;10.82;;;15.20;99.90;;;;;;5086491;28;20055;-83
2023/06/16 04:45:26;;;;;;;12.32;10.45;;;15.30;99.90;;;;;;5085712;28;20127;-82
2023/06/16 04:47:52;;;;;;;11.50;10.18;;;15.40;99.90;;;;;;5066428;28;20142;-84
2023/06/16 04:50:17;;;;;;;11.80;10.63;;;15.40;99.90;;;;;;5088393;28;20411;-83
2023/06/16 04:52:45;;;;;;;12.20;10.93;;;15.40;99.90;;;;;;5087706;28;20054;-83
2023/06/16 04:55:11;;;;;;;12.65;10.85;;;15.50;99.90;;;;;;5070669;28;20127;-81
2023/06/16 04:57:36;;;;;;;12.27;11.02;;;15.50;99.90;;;;;;5069797;28;20099;-83
2023/06/16 05:00:06;;;;;;;12.25;11.05;;;15.50;99.90;;;;;;5086812;28;20043;-85
2023/06/16 05:02:32;;;;;;;12.52;11.25;;;15.50;99.90;;;;;;5060633;28;20044;-86
2023/06/16 05:04:58;;;;;;;14.25;11.55;;;15.50;99.90;;;;;;5084443;28;20049;-87
2023/06/16 05:07:24;;;;;;;13.40;11.80;;;15.50;99.90;;;;;;5071599;28;20051;-87
2023/06/16 05:09:50;;;;;;;13.27;11.98;;;15.50;99.90;;;;;;5071360;28;20047;-86
2023/06/16 05:12:16;;;;;;;13.20;12.00;;;15.60;99.90;;;;;;5087815;28;20048;-85
2023/06/16 05:14:41;;;;;;;13.45;12.15;;;15.60;99.90;;;;;;5066130;28;20047;-86
2023/06/16 05:17:07;;;;;;;13.40;12.10;;;15.60;99.90;;;;;;5087175;28;20048;-85
2023/06/16 05:19:32;;;;;;;13.90;12.45;;;15.70;99.90;;;;;;5087105;28;20051;-85
2023/06/16 05:21:59;;;;;;;13.75;12.35;;;16.00;99.90;;;;;;5075149;28;20092;-86
2023/06/16 05:24:25;;;;;;;14.13;12.25;;;16.20;99.90;;;;;;5069145;28;20088;-88
2023/06/16 05:26:52;;;;;;;13.95;12.57;;;16.10;99.90;;;;;;5088271;28;20410;-86
2023/06/16 05:29:17;;;;;;;14.65;12.95;;;16.40;99.90;;;;;;5086236;28;20242;-86
2023/06/16 05:31:43;;;;;;;14.38;13.05;;;17.00;99.90;;;;;;5085670;28;20146;-87
2023/06/16 05:34:08;;;;;;;14.32;12.93;;;18.10;99.90;;;;;;5088026;28;20510;-88
2023/06/16 05:36:35;;;;;;;14.50;13.10;;;19.20;99.90;;;;;;5087487;28;20498;-87
2023/06/16 05:39:07;;;;;;;15.90;12.98;;;20.10;99.90;;;;;;5064299;28;20036;-88
2023/06/16 05:41:34;;;;;;;14.70;13.18;;;20.90;99.90;;;;;;5083996;28;20047;-87
2023/06/16 05:44:00;;;;;;;15.73;12.85;;;21.50;99.90;;;;;;5052394;28;20044;-87
2023/06/16 05:46:26;;;;;;;14.18;12.10;;;21.90;98.90;;;;;;5066853;28;20567;-87
2023/06/16 05:48:54;;;;;;;14.32;12.93;;;22.30;97.20;;;;;;5068431;28;20053;-87
2023/06/16 05:51:20;;;;;;;13.63;12.32;;;22.60;95.70;;;;;;5067316;28;20044;-87
2023/06/16 05:53:46;;;;;;;12.48;11.23;;;23.00;94.40;;;;;;5077609;28;20419;-87
2023/06/16 05:56:11;;;;;;;12.65;11.45;;;23.40;93.30;;;;;;5065015;28;20037;-87
2023/06/16 05:58:37;;;;;;;12.35;11.20;;;23.70;92.30;;;;;;5068417;28;20484;-89
2023/06/16 06:01:06;;;;;;;12.90;11.65;;;23.70;91.30;;;;;;5067036;28;20048;-87
2023/06/16 06:03:32;;;;;;;13.27;12.02;;;23.60;90.10;;;;;;5067883;28;20048;-90
2023/06/16 06:05:58;;;;;;;13.07;11.45;;;23.90;89.40;;;;;;5070858;28;20043;-86
2023/06/16 06:08:27;;;;;;;13.80;11.15;;;24.30;87.60;;;;;;5088300;28;20040;-86
2023/06/16 06:10:55;;;;;;;11.75;10.57;;;24.30;86.00;;;;;;5087139;28;20048;-85
2023/06/16 06:13:21;;;;;;;11.68;10.50;;;24.30;83.30;;;;;;5068052;28;20550;-82
2023/06/16 06:15:47;;;;;;;10.98;9.98;;;24.50;82.30;;;;;;5085911;28;20169;-86
2023/06/16 06:18:13;;;;;;;11.15;10.13;;;24.80;81.50;;;;;;5087940;28;20055;-84
2023/06/16 06:20:39;;;;;;;9.68;8.75;;;24.70;80.10;;;;;;5087117;28;20360;-83
2023/06/16 06:23:05;;;;;;;11.45;10.00;;;24.90;78.80;;;;;;5087094;28;20769;-84
2023/06/16 06:25:31;;;;;;;18.40;10.95;;;24.90;77.70;;;;;;5086483;28;20074;-84
2023/06/16 06:27:56;;;;;;;11.07;10.02;;;25.00;77.10;;;;;;5085255;28;20052;-84
2023/06/16 06:30:23;;;;;;;11.57;10.38;;;25.00;76.60;;;;;;5066398;28;20051;-83
2023/06/16 06:32:48;;;;;;;11.18;9.90;;;25.20;75.90;;;;;;5066158;28;20528;-84
2023/06/16 06:35:14;;;;;;;10.85;9.90;;;25.00;75.80;;;;;;5066027;28;20123;-82
2023/06/16 06:37:40;;;;;;;15.98;10.45;;;25.00;75.80;;;;;;5069784;28;20494;-83
2023/06/16 06:40:06;;;;;;;11.75;10.07;;;25.40;75.90;;;;;;5070456;28;20049;-83
2023/06/16 06:42:32;;;;;;;11.95;10.00;;;24.60;76.30;;;;;;5065773;28;20488;-84
2023/06/16 06:44:57;;;;;;;11.13;9.88;;;23.80;78.10;;;;;;5065889;28;20078;-81
2023/06/16 06:47:23;;;;;;;10.95;9.90;;;23.40;80.30;;;;;;5053926;28;20396;-84
2023/06/16 06:49:49;;;;;;;10.75;9.65;;;22.70;82.20;;;;;;5066858;28;20051;-83
2023/06/16 06:52:15;;;;;;;10.52;9.63;;;22.20;84.10;;;;;;5086178;28;20052;-83
2023/06/16 06:54:41;;;;;;;11.88;10.60;;;22.00;85.60;;;;;;5086435;28;20051;-83
2023/06/16 06:57:07;;;;;;;14.65;10.07;;;22.20;86.10;;;;;;5086748;28;20503;-82
2023/06/16 06:59:33;;;;;;;9.43;8.13;;;21.70;86.00;;;;;;5084226;28;20178;-83
2023/06/16 07:01:58;;;;;;;9.40;8.50;;;21.60;85.90;;;;;;5084749;28;20060;-82
2023/06/16 07:04:25;;;;;;;10.18;8.98;;;21.90;85.30;;;;;;5068615;28;20048;-84
2023/06/16 07:06:51;;;;;;;10.52;9.32;;;21.50;85.20;;;;;;5087330;28;20048;-83
2023/06/16 07:09:17;;;;;;;10.45;9.35;;;21.50;85.80;;;;;;5060833;28;20372;-81
2023/06/16 07:11:43;;;;;;;9.65;8.73;;;21.50;85.50;;;;;;5084501;28;20043;-82
2023/06/16 07:14:08;;;;;;;9.23;8.25;;;21.60;85.20;;;;;;5089700;28;20084;-83
2023/06/16 07:16:34;;;;;;;12.57;8.35;;;22.20;85.40;;;;;;5089509;28;20117;-82
2023/06/16 07:19:01;;;;;;;9.77;8.77;;;21.80;85.00;;;;;;5089330;28;20047;-82
2023/06/16 07:21:27;;;;;;;10.48;7.68;;;22.20;84.50;;;;;;5088859;28;20487;-82
2023/06/16 07:23:53;;;;;;;12.68;7.93;;;21.90;84.00;;;;;;5089032;28;20048;-82
2023/06/16 07:26:19;;;;;;;9.30;8.27;;;22.00;83.20;;;;;;5087612;28;20055;-82
2023/06/16 07:28:44;;;;;;;10.63;8.57;;;22.00;83.20;;;;;;5087761;28;20044;-82
2023/06/16 07:31:10;;;;;;;10.63;9.30;;;22.20;83.30;;;;;;5087913;28;20045;-82
2023/06/16 07:33:36;;;;;;;10.50;8.65;;;22.30;83.50;;;;;;5085809;28;20971;-82
2023/06/16 07:36:02;;;;;;;8.98;8.05;;;22.30;82.60;;;;;;5087380;28;20051;-81
2023/06/16 07:38:28;;;;;;;8.60;7.50;;;22.50;82.60;;;;;;5088633;28;20044;-82
2023/06/16 07:40:53;;;;;;;9.55;7.60;;;22.70;82.30;;;;;;5088600;28;20043;-82
2023/06/16 07:43:21;;;;;;;8.93;7.40;;;22.60;81.80;;;;;;5089267;28;20043;-82
2023/06/16 07:45:46;;;;;;;8.00;7.20;;;22.70;81.00;;;;;;5088419;28;20059;-82
2023/06/16 07:48:12;;;;;;;7.60;6.85;;;22.60;79.90;;;;;;5088765;28;20052;-82
2023/06/16 07:50:38;;;;;;;7.85;6.50;;;22.60;79.60;;;;;;5088603;28;20055;-82
2023/06/16 07:53:03;;;;;;;7.28;6.57;;;22.70;79.90;;;;;;5088797;28;20518;-82
2023/06/16 07:55:29;;;;;;;6.90;6.22;;;22.50;79.00;;;;;;5089367;28;20040;-82
2023/06/16 07:57:54;;;;;;;7.18;6.38;;;22.80;78.60;;;;;;5071498;28;20048;-82
2023/06/16 08:00:20;;;;;;;7.20;6.50;;;22.90;78.50;;;;;;5089619;28;20127;-80
2023/06/16 08:02:46;;;;;;;7.13;5.85;;;22.80;77.40;;;;;;5089778;28;20090;-81
2023/06/16 08:05:12;;;;;;;9.20;7.18;;;23.10;77.50;;;;;;5089314;28;20048;-82
2023/06/16 08:07:38;;;;;;;7.13;6.43;;;23.00;77.30;;;;;;5088597;28;20040;-81
2023/06/16 08:10:04;;;;;;;11.77;6.82;;;23.10;77.00;;;;;;5089721;28;20054;-81
2023/06/16 08:12:31;;;;;;;7.63;6.93;;;23.00;76.70;;;;;;5070854;28;20526;-81
2023/06/16 08:14:57;;;;;;;6.85;6.18;;;23.00;76.50;;;;;;5071282;28;20106;-82
2023/06/16 08:17:22;;;;;;;6.78;6.13;;;23.10;76.70;;;;;;5087606;28;20450;-82
2023/06/16 08:19:48;;;;;;;8.27;6.50;;;23.30;77.60;;;;;;5088924;28;20048;-83
2023/06/16 08:22:14;;;;;;;7.15;6.55;;;23.40;76.50;;;;;;5087802;28;20040;-81
2023/06/16 08:24:40;;;;;;;6.97;6.28;;;24.00;76.20;;;;;;5071273;28;20052;-83
2023/06/16 08:27:08;;;;;;;8.07;6.80;;;23.60;75.60;;;;;;5087884;28;20426;-82
2023/06/16 08:29:34;;;;;;;7.90;6.55;;;23.60;75.30;;;;;;5088318;28;20052;-80
2023/06/16 08:32:00;;;;;;;6.90;6.30;;;23.60;74.90;;;;;;5087678;28;20048;-81
2023/06/16 08:34:26;;;;;;;11.20;7.15;;;23.60;74.70;;;;;;5087480;28;20526;-81
2023/06/16 08:36:51;;;;;;;7.63;6.85;;;23.70;74.80;;;;;;5089403;28;20052;-81
2023/06/16 08:39:17;;;;;;;7.20;6.60;;;23.80;74.90;;;;;;5071176;28;20847;-81
2023/06/16 08:41:43;;;;;;;10.02;7.70;;;23.80;74.70;;;;;;5087805;28;20052;-81
2023/06/16 08:44:10;;;;;;;7.45;6.38;;;23.80;74.10;;;;;;5087763;28;20455;-82
2023/06/16 08:46:36;;;;;;;7.47;6.78;;;24.40;73.60;;;;;;5086984;28;20054;-82
2023/06/16 08:49:04;;;;;;;7.63;6.93;;;24.20;73.30;;;;;;5087210;28;20496;-82
2023/06/16 08:51:34;;;;;;;8.35;6.60;;;24.00;72.30;;;;;;5087746;28;20055;-82
2023/06/16 08:54:05;;;;;;;7.60;7.00;;;23.80;72.30;;;;;;5087791;28;20044;-81
2023/06/16 08:56:32;;;;;;;6.68;6.05;;;23.70;71.50;;;;;;5087710;28;20036;-82
2023/06/16 08:59:01;;;;;;;7.28;6.57;;;23.70;72.30;;;;;;5087979;28;20066;-82
2023/06/16 09:01:28;;;;;;;7.03;6.25;;;23.60;72.40;;;;;;5088794;28;20246;-82
2023/06/16 09:03:55;;;;;;;7.47;6.40;;;23.70;72.40;;;;;;5087341;28;20077;-82
2023/06/16 09:06:21;;;;;;;7.15;6.45;;;23.90;71.90;;;;;;5087275;28;20154;-82
2023/06/16 09:08:47;;;;;;;7.60;6.30;;;23.80;71.30;;;;;;5086207;28;20048;-82
2023/06/16 09:11:22;;;;;;;7.07;6.47;;;24.10;71.10;;;;;;5088828;28;20085;-82
2023/06/16 09:13:48;;;;;;;6.68;5.85;;;24.00;70.20;;;;;;5087291;28;20040;-82
2023/06/16 09:16:16;;;;;;;7.32;6.43;;;24.40;71.30;;;;;;5087060;28;20041;-82
2023/06/16 09:18:44;;;;;;;6.50;5.90;;;24.10;70.30;;;;;;5087124;28;20036;-81
2023/06/16 09:21:11;;;;;;;7.63;6.75;;;24.20;70.40;;;;;;5086468;28;20511;-80
2023/06/16 09:23:38;;;;;;;7.18;6.57;;;24.30;70.10;;;;;;5086494;28;20090;-81
2023/06/16 09:26:13;;;;;;;6.32;5.00;;;24.40;70.60;;;;;;5086829;28;20043;-83
2023/06/16 09:28:39;;;;;;;6.03;5.43;;;24.50;69.80;;;;;;5069562;28;20036;-82
2023/06/16 09:31:11;;;;;;;7.82;5.90;;;24.70;69.50;;;;;;5088300;28;20051;-83
2023/06/16 09:33:37;;;;;;;5.80;5.35;;;24.90;68.20;;;;;;5085934;28;20586;-81
2023/06/16 09:36:03;;;;;;;7.03;5.80;;;25.00;67.80;;;;;;5087976;28;20059;-81
2023/06/16 09:38:38;;;;;;;6.03;5.53;;;25.10;67.30;;;;;;5087050;28;20075;-82
2023/06/16 09:41:18;;;;;;;5.78;5.28;;;25.20;66.80;;;;;;5087937;28;20044;-82
2023/06/16 09:43:44;;;;;;;5.30;4.88;;;25.40;65.40;;;;;;5086395;28;20894;-82
2023/06/16 09:46:14;;;;;;;5.75;5.15;;;25.40;65.30;;;;;;5086994;28;20453;-82
2023/06/16 09:48:47;;;;;;;7.25;6.10;;;25.50;65.10;;;;;;5086551;28;20067;-81
2023/06/16 09:51:21;;;;;;;7.95;6.07;;;25.60;65.00;;;;;;5086354;28;20177;-81
2023/06/16 09:53:47;;;;;;;5.32;4.93;;;25.30;64.90;;;;;;5085410;28;20087;-81
2023/06/16 09:56:17;;;;;;;6.50;5.68;;;25.40;65.60;;;;;;5086364;28;20557;-82
2023/06/16 09:58:44;;;;;;;5.80;5.05;;;25.60;64.60;;;;;;5086364;28;20495;-82
2023/06/16 10:01:13;;;;;;;5.53;5.10;;;24.90;64.90;;;;;;5069397;28;20159;-82
2023/06/16 10:03:43;;;;;;;6.65;6.05;;;25.50;65.60;;;;;;5086199;28;20093;-82
2023/06/16 10:06:20;;;;;;;7.85;5.30;;;25.40;65.60;;;;;;5084804;28;20048;-81
2023/06/16 10:08:47;;;;;;;5.80;5.20;;;25.70;65.40;;;;;;5087675;28;20097;-83
2023/06/16 10:11:16;;;;;;;5.85;5.35;;;25.60;64.60;;;;;;5069682;28;20055;-82
2023/06/16 10:13:50;;;;;;;5.43;4.93;;;25.60;63.90;;;;;;5086022;28;20047;-83
2023/06/16 10:16:20;;;;;;;7.53;4.90;;;25.60;61.80;;;;;;5087296;28;20050;-80
2023/06/16 10:18:47;;;;;;;4.47;4.03;;;25.50;61.60;;;;;;5086115;28;20442;-81
2023/06/16 10:21:14;;;;;;;4.85;4.00;;;25.40;60.70;;;;;;5069031;28;20566;-81
2023/06/16 10:23:40;;;;;;;4.43;4.03;;;25.40;60.40;;;;;;5084114;28;20109;-82
2023/06/16 10:26:07;;;;;;;5.22;4.38;;;25.40;59.00;;;;;;5084006;28;20708;-82
2023/06/16 10:28:35;;;;;;;4.53;4.13;;;25.60;59.60;;;;;;5071211;28;20049;-84
2023/06/16 10:31:03;;;;;;;4.95;3.90;;;25.80;59.10;;;;;;5075070;28;20048;-84
2023/06/16 10:33:28;;;;;;;4.45;4.05;;;25.90;58.80;;;;;;5083822;28;20046;-84
2023/06/16 10:36:01;;;;;;;4.50;4.10;;;26.00;58.40;;;;;;5069558;28;20391;-84
2023/06/16 10:38:36;;;;;;;3.97;3.20;;;26.10;55.90;;;;;;5083010;28;20032;-84
2023/06/16 10:41:03;;;;;;;4.13;3.80;;;26.30;56.20;;;;;;5084836;28;20040;-84
2023/06/16 10:43:29;;;;;;;3.90;3.60;;;26.50;56.40;;;;;;5089333;28;20407;-83
2023/06/16 10:46:14;;;;;;;6.43;3.90;;;26.30;55.80;;;;;;5090779;28;20055;-83
2023/06/16 10:49:10;;;;;;;4.03;3.63;;;26.40;53.70;;;;;;5089910;28;20067;-82
2023/06/16 10:51:49;;;;;;;3.72;3.42;;;26.30;54.40;;;;;;5081121;28;20562;-82
2023/06/16 10:54:35;;;;;;;4.38;3.97;;;26.30;54.10;;;;;;5071461;28;20097;-86
2023/06/16 10:57:08;;;;;;;3.38;3.08;;;26.30;52.70;;;;;;5088517;28;20048;-83
2023/06/16 10:59:56;;;;;;;3.35;3.05;;;26.30;53.40;;;;;;5088923;28;20130;-84
2023/06/16 11:02:30;;;;;;;5.65;3.20;;;26.10;49.80;;;;;;5089659;28;20062;-83
2023/06/16 11:05:08;;;;;;;3.92;3.42;;;26.00;51.50;;;;;;5089461;28;20066;-83
2023/06/16 11:07:42;;;;;;;3.20;3.00;;;26.10;50.40;;;;;;5088107;28;20139;-83
2023/06/16 11:10:20;;;;;;;4.15;3.08;;;26.10;51.10;;;;;;5091577;28;20048;-82
2023/06/16 11:12:46;;;;;;;3.78;3.10;;;26.30;51.10;;;;;;5092022;28;20044;-82
2023/06/16 11:15:14;;;;;;;4.20;3.15;;;26.20;50.80;;;;;;5090996;28;20101;-82
2023/06/16 11:17:43;;;;;;;3.55;3.20;;;26.00;51.10;;;;;;5090814;28;20055;-83
2023/06/16 11:20:11;;;;;;;5.30;3.05;;;26.00;50.80;;;;;;5087420;28;20711;-84
2023/06/16 11:22:37;;;;;;;6.35;3.40;;;26.00;51.10;;;;;;5088922;28;20131;-83
2023/06/16 11:25:03;;;;;;;5.28;3.25;;;26.10;51.30;;;;;;5088998;28;20155;-80
2023/06/16 11:27:30;;;;;;;3.55;3.10;;;26.10;51.40;;;;;;5089711;28;20130;-84
2023/06/16 11:29:57;;;;;;;4.75;3.33;;;26.10;50.90;;;;;;5087091;28;20503;-84
2023/06/16 11:32:37;;;;;;;9.68;3.42;;;26.20;50.80;;;;;;5090548;28;20090;-83
2023/06/16 11:35:03;;;;;;;2.90;2.60;;;26.30;51.00;;;;;;5089754;28;20860;-84
2023/06/16 11:37:50;;;;;;;7.20;3.13;;;26.20;51.20;;;;;;5087869;28;20044;-84
2023/06/16 11:40:21;;;;;;;3.50;2.90;;;26.40;49.50;;;;;;5078557;28;20070;-84
2023/06/16 11:42:57;;;;;;;3.03;2.75;;;26.60;50.00;;;;;;5088502;28;20122;-84
2023/06/16 11:45:25;;;;;;;4.78;3.50;;;26.50;49.30;;;;;;5071513;28;20457;-83
2023/06/16 11:47:53;;;;;;;6.20;2.90;;;26.50;49.30;;;;;;5090117;28;20084;-83
2023/06/16 11:50:20;;;;;;;4.28;2.90;;;26.40;49.10;;;;;;5089859;28;20372;-84
2023/06/16 11:52:46;;;;;;;3.97;2.70;;;26.30;48.70;;;;;;5087283;28;20091;-82
2023/06/16 11:55:12;;;;;;;3.67;3.20;;;26.30;48.80;;;;;;5087835;28;20818;-84
2023/06/16 11:57:39;;;;;;;3.22;2.92;;;26.40;48.90;;;;;;5088813;28;20040;-83
2023/06/16 12:00:07;;;;;;;3.83;2.90;;;26.50;48.80;;;;;;5086901;28;20053;-82
2023/06/16 12:02:33;;;;;;;3.72;2.90;;;26.60;48.50;;;;;;5088485;28;20052;-82
2023/06/16 12:05:00;;;;;;;3.90;2.63;;;26.70;48.20;;;;;;5088929;28;20036;-83
2023/06/16 12:07:26;;;;;;;3.88;2.35;;;26.80;48.00;;;;;;5087927;28;20036;-82
2023/06/16 12:09:57;;;;;;;3.67;3.00;;;26.90;47.90;;;;;;5087153;28;20036;-82
2023/06/16 12:12:26;;;;;;;3.55;2.90;;;27.10;48.20;;;;;;5087890;28;20051;-83
2023/06/16 12:14:52;;;;;;;2.80;2.38;;;27.00;47.30;;;;;;5088060;28;20499;-83
2023/06/16 12:17:18;;;;;;;3.42;2.70;;;27.20;47.10;;;;;;5070817;28;20032;-82
2023/06/16 12:19:46;;;;;;;5.53;3.05;;;26.90;46.90;;;;;;5087459;28;20032;-82
2023/06/16 12:22:11;;;;;;;2.95;2.75;;;26.80;46.90;;;;;;5074261;28;20114;-82
2023/06/16 12:24:40;;;;;;;4.18;3.00;;;26.80;46.50;;;;;;5067758;28;20145;-82
2023/06/16 12:27:06;;;;;;;5.00;2.90;;;26.90;46.50;;;;;;5067931;28;20091;-82
2023/06/16 12:29:32;;;;;;;4.88;2.75;;;26.90;46.20;;;;;;5067728;28;20076;-83
2023/06/16 12:32:05;;;;;;;3.63;3.15;;;26.70;45.40;;;;;;5077452;28;20051;-84
2023/06/16 12:34:35;;;;;;;2.70;2.50;;;26.60;45.00;;;;;;5088294;28;20052;-85
2023/06/16 12:37:07;;;;;;;3.25;2.90;;;26.60;45.70;;;;;;5088138;28;20048;-87
2023/06/16 12:39:34;;;;;;;2.70;2.50;;;26.50;45.60;;;;;;5084682;28;20052;-84
2023/06/16 12:42:05;;;;;;;3.33;2.75;;;26.60;45.70;;;;;;5087787;28;20092;-85
2023/06/16 12:44:50;;;;;;;2.88;2.50;;;26.50;45.40;;;;;;5089003;28;20122;-85
2023/06/16 12:47:21;;;;;;;2.80;2.60;;;26.40;45.40;;;;;;5088268;28;20148;-85